createdAt,value
2023-03-28T00:00:50.203Z,2.40
2023-03-28T00:03:44.104Z,2.33
2023-03-28T00:06:17.912Z,1.87
2023-03-28T00:08:47.814Z,2.21
2023-03-28T00:11:20.949Z,2.27
2023-03-28T00:13:59.594Z,2.24
2023-03-28T00:16:32.804Z,2.52
2023-03-28T00:19:02.349Z,2.00
2023-03-28T00:21:34.098Z,2.52
2023-03-28T00:24:07.239Z,1.95
2023-03-28T00:26:43.358Z,2.23
2023-03-28T00:29:23.910Z,2.51
2023-03-28T00:31:56.528Z,2.33
2023-03-28T00:34:31.468Z,2.08
2023-03-28T00:36:58.593Z,2.42
2023-03-28T00:39:27.988Z,2.40
2023-03-28T00:41:57.607Z,2.10
2023-03-28T00:44:53.031Z,2.29
2023-03-28T00:47:44.104Z,2.42
2023-03-28T00:50:41.949Z,2.41
2023-03-28T00:53:21.557Z,2.06
2023-03-28T00:56:00.168Z,2.43
2023-03-28T00:58:35.504Z,2.42
2023-03-28T01:01:14.518Z,2.40
2023-03-28T01:03:53.038Z,1.86
2023-03-28T01:06:26.611Z,2.20
2023-03-28T01:08:59.476Z,2.41
2023-03-28T01:11:30.038Z,2.42
2023-03-28T01:14:05.607Z,2.44
2023-03-28T01:19:54.959Z,2.43
2023-03-28T01:23:00.286Z,2.00
2023-03-28T01:26:21.276Z,2.38
2023-03-28T01:29:15.200Z,2.36
2023-03-28T01:32:12.307Z,2.26
2023-03-28T01:35:20.721Z,2.30
2023-03-28T01:54:44.409Z,2.37
2023-03-28T01:57:25.281Z,2.10
2023-03-28T02:00:16.198Z,2.29
2023-03-28T02:08:37.555Z,2.21
2023-03-28T02:11:10.508Z,1.84
2023-03-28T02:13:50.329Z,2.17
2023-03-28T02:16:23.549Z,2.16
2023-03-28T02:19:12.541Z,1.84
2023-03-28T02:22:11.285Z,2.13
2023-03-28T02:24:42.055Z,2.11
2023-03-28T02:27:12.192Z,1.75
2023-03-28T02:29:45.991Z,2.06
2023-03-28T02:32:16.892Z,2.04
2023-03-28T02:34:49.283Z,2.01
2023-03-28T02:37:46.731Z,1.40
2023-03-28T02:43:37.383Z,1.98
2023-03-28T02:46:36.487Z,1.96
2023-03-28T02:52:36.238Z,1.92
2023-03-28T02:55:25.546Z,1.90
2023-03-28T02:58:20.214Z,1.23
2023-03-28T03:01:02.873Z,1.20
2023-03-28T03:03:45.786Z,1.47
2023-03-28T03:06:18.983Z,1.84
2023-03-28T03:08:52.044Z,1.52
2023-03-28T03:11:20.774Z,1.83
2023-03-28T03:13:51.184Z,1.84
2023-03-28T03:18:58.690Z,1.52
2023-03-28T03:26:59.544Z,1.39
2023-03-28T03:29:38.486Z,1.79
2023-03-28T03:32:07.280Z,1.89
2023-03-28T03:34:45.841Z,1.39
2023-03-28T03:37:21.049Z,1.51
2023-03-28T03:39:52.840Z,1.82
2023-03-28T03:42:30.524Z,1.77
2023-03-28T03:45:01.293Z,1.72
2023-03-28T03:47:41.789Z,1.45
2023-03-28T03:50:12.024Z,1.63
2023-03-28T03:52:41.073Z,1.63
2023-03-28T03:55:15.345Z,1.32
2023-03-28T03:57:49.280Z,1.60
2023-03-28T04:06:08.614Z,1.08
2023-03-28T04:08:37.882Z,1.47
2023-03-28T04:13:56.625Z,1.07
2023-03-28T04:16:27.729Z,1.35
2023-03-28T04:19:23.075Z,1.40
2023-03-28T04:22:30.843Z,1.39
2023-03-28T04:24:59.071Z,1.39
2023-03-28T04:27:29.729Z,1.37
2023-03-28T04:29:56.201Z,1.40
2023-03-28T04:32:27.521Z,1.42
2023-03-28T04:34:55.435Z,1.31
2023-03-28T04:37:33.775Z,1.42
2023-03-28T04:40:10.809Z,0.69
2023-03-28T04:42:44.967Z,0.89
2023-03-28T04:45:38.090Z,1.12
2023-03-28T04:48:15.154Z,1.43
2023-03-28T04:51:01.314Z,1.45
2023-03-28T04:54:05.631Z,1.18
2023-03-28T04:56:35.775Z,1.42
2023-03-28T04:59:09.104Z,1.40
2023-03-28T05:01:53.167Z,1.02
2023-03-28T05:04:34.432Z,1.35
2023-03-28T05:07:09.849Z,1.34
2023-03-28T05:09:49.125Z,1.35
2023-03-28T05:12:21.913Z,1.16
2023-03-28T05:15:00.088Z,1.35
2023-03-28T05:17:29.748Z,1.14
2023-03-28T05:19:57.468Z,1.38
2023-03-28T05:22:29.665Z,1.36
2023-03-28T05:25:00.402Z,0.76
2023-03-28T05:27:32.606Z,0.85
2023-03-28T05:30:12.133Z,1.41
2023-03-28T05:35:40.173Z,1.44
2023-03-28T05:38:19.769Z,1.45
2023-03-28T05:40:52.523Z,1.46
2023-03-28T05:43:32.846Z,1.47
2023-03-28T05:46:00.605Z,1.21
2023-03-28T05:51:19.746Z,0.88
2023-03-28T05:53:57.815Z,0.93
2023-03-28T05:56:53.433Z,1.58
2023-03-28T05:59:33.150Z,1.48
2023-03-28T06:04:55.697Z,1.69
2023-03-28T06:07:35.271Z,1.04
2023-03-28T06:10:20.733Z,1.17
2023-03-28T06:12:53.340Z,1.43
2023-03-28T06:15:23.439Z,1.20
2023-03-28T06:17:57.731Z,1.86
2023-03-28T06:23:12.205Z,1.31
2023-03-28T06:28:37.995Z,2.06
2023-03-28T06:31:15.598Z,2.10
2023-03-28T06:33:52.973Z,1.78
2023-03-28T06:36:25.254Z,2.33
2023-03-28T06:38:55.691Z,1.73
2023-03-28T06:41:48.605Z,1.79
2023-03-28T06:44:21.226Z,1.84
2023-03-28T06:46:49.586Z,2.17
2023-03-28T06:49:20.607Z,2.58
2023-03-28T06:52:14.208Z,2.68
2023-03-28T07:00:36.580Z,3.23
2023-03-28T07:03:37.325Z,3.34
2023-03-28T07:06:12.162Z,3.29
2023-03-28T07:11:38.357Z,4.17
2023-03-28T07:19:42.209Z,4.48
2023-03-28T07:22:22.237Z,4.93
2023-03-28T07:24:57.210Z,4.84
2023-03-28T07:27:42.876Z,4.81
2023-03-28T07:30:13.214Z,4.55
2023-03-28T07:32:53.328Z,5.11
2023-03-28T07:38:12.492Z,5.12
2023-03-28T07:40:41.439Z,6.02
2023-03-28T07:43:12.353Z,6.06
2023-03-28T07:45:42.642Z,5.71
2023-03-28T07:48:17.411Z,6.10
2023-03-28T07:50:49.987Z,5.87
2023-03-28T07:56:26.569Z,6.14
2023-03-28T07:58:57.231Z,7.14
2023-03-28T08:01:27.341Z,7.79
2023-03-28T08:06:54.142Z,6.79
2023-03-28T08:09:38.907Z,7.12
2023-03-28T08:12:22.366Z,6.59
2023-03-28T08:14:55.626Z,5.84
2023-03-28T08:17:34.336Z,6.14
2023-03-28T08:20:31.279Z,5.68
2023-03-28T08:26:08.582Z,6.01
2023-03-28T08:28:50.081Z,6.09
2023-03-28T08:34:54.247Z,6.24
2023-03-28T08:40:20.028Z,6.44
2023-03-28T08:43:43.822Z,6.12
2023-03-28T08:46:27.136Z,5.80
2023-03-28T08:48:58.332Z,6.53
2023-03-28T08:51:55.880Z,6.84
2023-03-28T08:57:45.282Z,6.71
2023-03-28T09:03:34.935Z,6.46
2023-03-28T09:06:29.614Z,6.29
2023-03-28T09:09:25.022Z,5.81
2023-03-28T09:12:10.201Z,5.83
2023-03-28T09:19:02.955Z,5.78
2023-03-28T09:22:15.232Z,6.01
2023-03-28T09:28:17.440Z,6.65
2023-03-28T09:30:51.583Z,6.69
2023-03-28T09:33:57.946Z,6.84
2023-03-28T09:40:10.033Z,7.64
2023-03-28T09:43:08.044Z,7.93
2023-03-28T09:46:13.636Z,7.11
2023-03-28T09:48:42.367Z,7.79
2023-03-28T09:56:50.404Z,7.40
2023-03-28T09:59:42.636Z,6.88
2023-03-28T10:03:00.542Z,6.91
2023-03-28T10:05:48.431Z,7.10
2023-03-28T10:08:41.460Z,6.99
2023-03-28T10:11:46.335Z,7.48
2023-03-28T10:14:40.046Z,7.81
2023-03-28T10:17:44.636Z,7.90
2023-03-28T10:20:30.012Z,7.99
2023-03-28T10:23:04.637Z,8.31
2023-03-28T10:28:37.101Z,8.89
2023-03-28T10:31:11.192Z,9.12
2023-03-28T10:36:57.684Z,8.70
2023-03-28T10:39:32.571Z,9.00
2023-03-28T10:42:05.180Z,8.64
2023-03-28T10:47:21.982Z,8.65
2023-03-28T10:50:03.571Z,8.12
2023-03-28T10:52:49.788Z,8.00
2023-03-28T10:55:26.491Z,7.76
2023-03-28T10:58:17.503Z,8.01
2023-03-28T11:01:05.823Z,7.65
2023-03-28T11:04:02.046Z,7.93
2023-03-28T11:06:53.846Z,7.71
2023-03-28T11:10:03.335Z,7.37
2023-03-28T11:12:51.268Z,7.98
2023-03-28T11:15:47.548Z,8.21
2023-03-28T11:18:47.581Z,8.31
2023-03-28T11:21:55.802Z,8.09
2023-03-28T11:24:54.911Z,8.40
2023-03-28T11:27:28.418Z,8.23
2023-03-28T11:30:29.340Z,8.34
2023-03-28T11:33:17.790Z,8.06
2023-03-28T11:36:14.449Z,8.04
2023-03-28T11:38:47.706Z,7.66
2023-03-28T11:41:58.081Z,8.28
2023-03-28T11:44:37.875Z,8.26
2023-03-28T11:50:20.573Z,7.74
2023-03-28T11:53:42.066Z,7.70
2023-03-28T11:56:34.704Z,7.82
2023-03-28T11:59:27.865Z,8.48
2023-03-28T12:02:10.977Z,8.33
2023-03-28T12:04:50.444Z,9.24
2023-03-28T12:07:38.272Z,9.66
2023-03-28T12:10:30.942Z,9.25
2023-03-28T12:13:09.361Z,9.33
2023-03-28T12:15:56.988Z,9.33
2023-03-28T12:19:24.249Z,8.62
2023-03-28T12:22:02.021Z,8.73
2023-03-28T12:24:35.382Z,8.73
2023-03-28T12:30:36.711Z,9.20
2023-03-28T12:33:30.614Z,9.52
2023-03-28T12:36:08.712Z,9.63
2023-03-28T12:39:42.480Z,9.31
2023-03-28T12:42:14.606Z,8.05
2023-03-28T12:45:06.237Z,8.68
2023-03-28T12:47:52.909Z,8.79
2023-03-28T12:50:56.021Z,9.36
2023-03-28T12:53:29.501Z,9.70
2023-03-28T12:56:02.017Z,9.70
2023-03-28T12:58:39.230Z,9.99
2023-03-28T13:04:03.945Z,10.52
2023-03-28T13:06:51.073Z,10.54
2023-03-28T13:09:57.653Z,10.50
2023-03-28T13:22:27.776Z,10.44
2023-03-28T13:25:26.568Z,10.45
2023-03-28T13:27:59.586Z,10.55
2023-03-28T13:30:44.707Z,10.77
2023-03-28T13:33:30.953Z,10.57
2023-03-28T13:36:16.600Z,10.83
2023-03-28T13:38:58.378Z,10.95
2023-03-28T13:41:50.214Z,11.00
2023-03-28T13:47:37.685Z,11.27
2023-03-28T13:50:28.752Z,11.50
2023-03-28T13:53:05.341Z,11.58
2023-03-28T13:55:48.327Z,11.50
2023-03-28T13:58:18.970Z,11.64
2023-03-28T14:03:39.635Z,10.35
2023-03-28T14:06:26.592Z,10.24
2023-03-28T14:11:46.041Z,10.26
2023-03-28T14:14:27.458Z,10.32
2023-03-28T14:17:01.469Z,9.68
2023-03-28T14:19:48.191Z,9.16
2023-03-28T14:23:01.067Z,9.82
2023-03-28T14:25:32.699Z,9.96
2023-03-28T14:28:16.836Z,10.05
2023-03-28T14:36:37.009Z,10.67
2023-03-28T14:39:22.097Z,10.53
2023-03-28T14:41:51.258Z,10.77
2023-03-28T14:44:24.280Z,11.18
2023-03-28T14:47:03.956Z,11.46
2023-03-28T14:49:36.234Z,11.78
2023-03-28T14:52:11.507Z,11.75
2023-03-28T14:54:44.556Z,11.38
2023-03-28T14:57:21.175Z,11.19
2023-03-28T14:59:55.506Z,10.90
2023-03-28T15:02:36.485Z,10.70
2023-03-28T15:05:16.257Z,10.67
2023-03-28T15:07:52.812Z,10.62
2023-03-28T15:10:21.879Z,10.36
2023-03-28T15:13:04.851Z,9.62
2023-03-28T15:15:46.246Z,9.40
2023-03-28T15:18:44.685Z,9.58
2023-03-28T15:21:14.723Z,9.58
2023-03-28T15:24:13.830Z,9.83
2023-03-28T15:26:56.167Z,10.05
2023-03-28T15:29:30.081Z,10.09
2023-03-28T15:35:12.622Z,10.22
2023-03-28T15:37:46.836Z,10.14
2023-03-28T15:40:39.595Z,9.93
2023-03-28T15:43:15.676Z,10.11
2023-03-28T15:45:52.839Z,9.85
2023-03-28T15:48:20.761Z,9.88
2023-03-28T15:50:55.652Z,9.88
2023-03-28T15:53:38.685Z,9.58
2023-03-28T15:56:18.569Z,9.47
2023-03-28T15:58:47.622Z,9.33
2023-03-28T16:01:31.620Z,9.48
2023-03-28T16:04:20.609Z,9.52
2023-03-28T16:06:49.421Z,9.65
2023-03-28T16:09:26.355Z,9.27
2023-03-28T16:12:06.514Z,9.63
2023-03-28T16:14:39.806Z,9.68
2023-03-28T16:17:09.008Z,9.60
2023-03-28T16:19:42.743Z,9.37
2023-03-28T16:36:14.944Z,9.23
2023-03-28T16:39:40.788Z,8.89
2023-03-28T16:42:39.599Z,8.92
2023-03-28T16:45:26.234Z,8.66
2023-03-28T16:47:56.074Z,8.92
2023-03-28T16:50:30.124Z,9.12
2023-03-28T16:55:49.260Z,8.65
2023-03-28T16:59:11.519Z,8.98
2023-03-28T17:01:49.904Z,8.73
2023-03-28T17:04:29.414Z,8.70
2023-03-28T17:07:09.872Z,8.65
2023-03-28T17:21:05.367Z,8.34
2023-03-28T17:29:16.775Z,8.34
2023-03-28T17:31:53.902Z,8.49
2023-03-28T17:37:19.287Z,8.56
2023-03-28T17:43:24.413Z,8.03
2023-03-28T17:46:28.774Z,7.77
2023-03-28T17:49:39.201Z,8.30
2023-03-28T17:59:01.893Z,7.98
2023-03-28T18:08:22.364Z,8.32
2023-03-28T18:24:01.398Z,8.35
2023-03-28T18:30:11.999Z,8.34
2023-03-28T18:32:39.904Z,8.03
2023-03-28T18:35:13.895Z,7.77
2023-03-28T18:43:30.862Z,8.27
2023-03-28T18:52:12.185Z,8.04
2023-03-28T18:55:02.492Z,8.28
2023-03-28T18:57:34.974Z,8.26
2023-03-28T19:16:59.418Z,8.03
2023-03-28T19:26:06.497Z,7.71
2023-03-28T19:35:37.598Z,8.14
2023-03-28T19:38:29.323Z,8.22
2023-03-28T19:47:33.874Z,8.03
2023-03-28T19:53:14.132Z,7.88
2023-03-28T19:56:21.621Z,7.77
2023-03-28T19:59:12.243Z,8.16
2023-03-28T20:14:25.654Z,8.00
2023-03-28T20:16:52.676Z,7.95
2023-03-28T20:19:23.972Z,7.83
2023-03-28T20:21:58.169Z,7.87
2023-03-28T20:24:38.075Z,8.08
2023-03-28T20:27:15.384Z,8.16
2023-03-28T20:29:43.330Z,7.95
2023-03-28T20:32:11.459Z,7.66
2023-03-28T20:34:41.850Z,7.79
2023-03-28T20:40:11.603Z,7.67
2023-03-28T20:45:31.809Z,7.90
2023-03-28T20:51:06.338Z,8.04
2023-03-28T20:53:41.472Z,8.09
2023-03-28T20:56:10.554Z,7.87
2023-03-28T20:58:39.689Z,7.78
2023-03-28T21:01:09.936Z,7.52
2023-03-28T21:03:59.943Z,7.77
2023-03-28T21:06:31.332Z,7.59
2023-03-28T21:09:02.221Z,7.66
2023-03-28T21:11:31.456Z,7.61
2023-03-28T21:14:00.211Z,7.53
2023-03-28T21:16:30.267Z,7.46
2023-03-28T21:18:59.391Z,7.42
2023-03-28T21:21:29.942Z,7.29
2023-03-28T21:23:57.122Z,7.43
2023-03-28T21:26:24.886Z,7.35
2023-03-28T21:28:55.307Z,7.21
2023-03-28T21:31:25.785Z,7.25
2023-03-28T21:33:55.887Z,7.49
2023-03-28T21:36:22.525Z,7.32
2023-03-28T21:38:49.322Z,7.41
2023-03-28T21:41:17.036Z,7.42
2023-03-28T21:43:44.652Z,7.42
2023-03-28T21:46:16.174Z,7.42
2023-03-28T21:48:44.925Z,7.58
2023-03-28T21:51:12.158Z,7.66
2023-03-28T21:53:39.610Z,7.59
2023-03-28T21:56:07.110Z,7.70
2023-03-28T21:58:34.704Z,7.72
2023-03-28T22:01:03.853Z,7.52
2023-03-28T22:03:32.985Z,7.77
2023-03-28T22:05:59.681Z,7.44
2023-03-28T22:08:27.246Z,7.81
2023-03-28T22:10:57.583Z,7.75
2023-03-28T22:13:24.850Z,7.43
2023-03-28T22:15:54.842Z,7.30
2023-03-28T22:18:30.248Z,7.62
2023-03-28T22:21:02.523Z,7.71
2023-03-28T22:23:29.562Z,7.67
2023-03-28T22:25:59.034Z,7.43
2023-03-28T22:28:25.627Z,7.48
2023-03-28T22:30:56.690Z,7.39
2023-03-28T22:33:25.703Z,7.32
2023-03-28T22:35:56.224Z,7.34
2023-03-28T22:38:22.737Z,7.27
2023-03-28T22:40:50.492Z,7.26
2023-03-28T22:43:17.129Z,7.31
2023-03-28T22:45:43.980Z,7.32
2023-03-28T22:48:17.113Z,7.38
2023-03-28T22:50:44.987Z,7.31
2023-03-28T22:53:12.483Z,7.19
2023-03-28T22:55:39.064Z,7.11
2023-03-28T22:58:13.845Z,7.09
2023-03-28T23:00:44.054Z,7.12
2023-03-28T23:03:12.317Z,7.15
2023-03-28T23:05:40.284Z,7.13
2023-03-28T23:08:11.798Z,7.12
2023-03-28T23:10:40.812Z,7.19
2023-03-28T23:13:11.646Z,7.22
2023-03-28T23:15:55.837Z,6.92
2023-03-28T23:18:25.780Z,6.71
2023-03-28T23:20:53.352Z,7.20
2023-03-28T23:23:20.521Z,7.15
2023-03-28T23:25:47.933Z,7.08
2023-03-28T23:28:14.969Z,6.98
2023-03-28T23:30:41.960Z,7.09
2023-03-28T23:33:11.992Z,7.21
2023-03-28T23:35:44.555Z,6.98
2023-03-28T23:38:16.316Z,6.90
2023-03-28T23:40:51.208Z,7.18
2023-03-28T23:43:19.358Z,7.19
2023-03-28T23:45:48.339Z,7.21
2023-03-28T23:48:15.050Z,7.29
2023-03-28T23:50:41.749Z,7.33
2023-03-28T23:53:08.425Z,7.30
2023-03-28T23:55:35.681Z,7.28
2023-03-28T23:58:04.623Z,7.27
